createdAt,value
2022-08-20T00:00:39.981Z,18.20
2022-08-20T00:03:21.459Z,19.00
2022-08-20T00:06:05.744Z,18.70
2022-08-20T00:08:34.141Z,19.00
2022-08-20T00:11:04.122Z,18.40
2022-08-20T00:13:36.951Z,18.90
2022-08-20T00:16:06.745Z,17.70
2022-08-20T00:18:38.361Z,17.60
2022-08-20T00:21:11.044Z,19.00
2022-08-20T00:23:44.171Z,18.70
2022-08-20T00:26:13.763Z,17.90
2022-08-20T00:28:42.477Z,18.30
2022-08-20T00:31:14.085Z,17.90
2022-08-20T00:33:47.599Z,17.40
2022-08-20T00:36:30.032Z,17.50
2022-08-20T00:39:01.813Z,17.10
2022-08-20T00:41:31.138Z,17.70
2022-08-20T00:44:22.124Z,18.80
2022-08-20T00:49:30.789Z,17.10
2022-08-20T00:52:11.627Z,18.80
2022-08-20T00:54:47.098Z,19.20
2022-08-20T00:57:44.506Z,17.50
2022-08-20T01:00:26.987Z,17.60
2022-08-20T01:02:57.153Z,18.60
2022-08-20T01:05:29.494Z,17.80
2022-08-20T01:07:58.855Z,16.90
2022-08-20T01:10:35.027Z,19.20
2022-08-20T01:13:11.206Z,19.70
2022-08-20T01:15:43.380Z,18.00
2022-08-20T01:18:18.558Z,17.70
2022-08-20T01:20:51.803Z,17.60
2022-08-20T01:23:45.887Z,18.30
2022-08-20T01:26:45.573Z,18.40
2022-08-20T01:29:18.693Z,18.20
2022-08-20T01:31:46.843Z,18.20
2022-08-20T01:34:19.229Z,18.40
2022-08-20T01:36:51.333Z,18.10
2022-08-20T01:39:24.364Z,18.80
2022-08-20T01:42:19.584Z,18.40
2022-08-20T01:44:48.287Z,19.40
2022-08-20T01:47:22.080Z,18.20
2022-08-20T01:49:55.565Z,18.10
2022-08-20T01:53:02.349Z,18.60
2022-08-20T01:55:31.945Z,18.50
2022-08-20T01:58:01.408Z,18.60
2022-08-20T02:00:30.025Z,18.00
2022-08-20T02:03:00.318Z,18.30
2022-08-20T02:05:30.581Z,17.90
2022-08-20T02:10:31.651Z,18.30
2022-08-20T02:13:01.976Z,18.20
2022-08-20T02:15:35.238Z,18.50
2022-08-20T02:18:10.775Z,18.90
2022-08-20T02:20:40.748Z,19.40
2022-08-20T02:23:10.515Z,19.20
2022-08-20T02:25:40.579Z,19.50
2022-08-20T02:28:12.167Z,18.30
2022-08-20T02:30:47.130Z,19.50
2022-08-20T02:33:19.722Z,18.70
2022-08-20T02:35:55.614Z,18.00
2022-08-20T02:38:24.697Z,19.10
2022-08-20T02:40:54.859Z,19.70
2022-08-20T02:43:23.933Z,19.70
2022-08-20T02:45:55.872Z,20.50
2022-08-20T02:48:24.064Z,18.60
2022-08-20T02:51:00.135Z,18.30
2022-08-20T02:53:31.136Z,19.00
2022-08-20T02:56:00.581Z,18.30
2022-08-20T02:58:29.522Z,18.70
2022-08-20T03:01:00.120Z,19.20
2022-08-20T03:03:28.735Z,18.70
2022-08-20T03:05:59.035Z,19.20
2022-08-20T03:08:29.546Z,19.00
2022-08-20T03:11:00.679Z,18.30
2022-08-20T03:13:31.758Z,18.60
2022-08-20T03:16:13.199Z,18.10
2022-08-20T03:18:53.628Z,18.60
2022-08-20T03:21:32.389Z,18.70
2022-08-20T03:24:03.743Z,19.00
2022-08-20T03:26:37.911Z,18.70
2022-08-20T03:29:06.631Z,18.80
2022-08-20T03:31:37.786Z,18.90
2022-08-20T03:34:08.367Z,19.20
2022-08-20T03:36:36.947Z,19.60
2022-08-20T03:39:07.734Z,20.10
2022-08-20T03:41:35.749Z,19.50
2022-08-20T03:44:04.775Z,19.60
2022-08-20T03:46:34.806Z,20.90
2022-08-20T03:49:03.885Z,20.50
2022-08-20T03:51:45.981Z,19.10
2022-08-20T03:54:23.559Z,19.40
2022-08-20T03:56:51.985Z,19.10
2022-08-20T03:59:20.042Z,19.30
2022-08-20T04:01:48.851Z,18.70
2022-08-20T04:04:37.377Z,18.70
2022-08-20T04:07:19.871Z,19.40
2022-08-20T04:09:48.423Z,19.20
2022-08-20T04:12:16.607Z,17.50
2022-08-20T04:15:07.245Z,18.10
2022-08-20T04:17:42.397Z,19.40
2022-08-20T04:20:18.569Z,18.70
2022-08-20T04:22:50.804Z,18.80
2022-08-20T04:25:36.742Z,20.60
2022-08-20T04:28:14.774Z,18.80
2022-08-20T04:30:52.965Z,20.70
2022-08-20T04:33:33.530Z,20.30
2022-08-20T04:36:06.310Z,19.40
2022-08-20T04:38:47.872Z,20.80
2022-08-20T04:41:22.581Z,20.90
2022-08-20T04:43:54.514Z,19.40
2022-08-20T04:46:32.821Z,20.10
2022-08-20T04:49:03.545Z,20.30
2022-08-20T04:51:32.409Z,19.60
2022-08-20T04:54:01.555Z,20.30
2022-08-20T04:56:39.877Z,19.80
2022-08-20T04:59:08.411Z,20.10
2022-08-20T05:01:36.660Z,20.00
2022-08-20T05:04:05.270Z,20.40
2022-08-20T05:06:38.205Z,20.60
2022-08-20T05:09:07.181Z,19.00
2022-08-20T05:11:43.364Z,18.90
2022-08-20T05:14:12.411Z,20.60
2022-08-20T05:16:41.060Z,19.90
2022-08-20T05:19:49.581Z,20.40
2022-08-20T05:22:18.666Z,20.90
2022-08-20T05:24:54.042Z,20.50
2022-08-20T05:27:24.730Z,20.80
2022-08-20T05:29:56.050Z,41.50
2022-08-20T05:32:24.533Z,107.60
2022-08-20T05:34:53.071Z,28.50
2022-08-20T05:37:21.455Z,39.10
2022-08-20T05:39:49.825Z,52.50
2022-08-20T05:42:20.921Z,58.40
2022-08-20T05:44:50.151Z,96.80
2022-08-20T05:47:18.603Z,28.60
2022-08-20T05:49:47.128Z,45.20
2022-08-20T05:52:15.229Z,21.90
2022-08-20T05:55:24.762Z,21.80
2022-08-20T05:58:06.257Z,20.00
2022-08-20T06:00:35.707Z,20.80
2022-08-20T06:03:22.357Z,22.80
2022-08-20T06:05:53.205Z,20.80
2022-08-20T06:08:21.279Z,21.10
2022-08-20T06:11:37.005Z,23.10
2022-08-20T06:14:06.222Z,55.70
2022-08-20T06:16:57.437Z,23.40
2022-08-20T06:19:36.104Z,23.10
2022-08-20T06:22:17.697Z,22.90
2022-08-20T06:24:55.708Z,22.90
2022-08-20T06:27:26.580Z,22.40
2022-08-20T06:29:55.276Z,23.50
2022-08-20T06:32:32.275Z,23.50
2022-08-20T06:35:04.027Z,23.10
2022-08-20T06:40:28.944Z,22.70
2022-08-20T06:43:03.089Z,23.30
2022-08-20T06:45:33.471Z,24.00
2022-08-20T06:48:07.057Z,24.90
2022-08-20T06:50:47.467Z,25.90
2022-08-20T06:53:21.376Z,24.50
2022-08-20T06:55:55.448Z,23.80
2022-08-20T06:58:36.976Z,23.60
2022-08-20T07:01:12.604Z,22.80
2022-08-20T07:03:55.331Z,22.70
2022-08-20T07:06:27.986Z,24.80
2022-08-20T07:09:30.200Z,87.10
2022-08-20T07:11:58.730Z,36.20
2022-08-20T07:14:30.068Z,25.20
2022-08-20T07:17:11.330Z,25.30
2022-08-20T07:19:41.069Z,24.70
2022-08-20T07:22:09.855Z,26.10
2022-08-20T07:24:48.904Z,25.20
2022-08-20T07:27:23.175Z,24.40
2022-08-20T07:30:15.039Z,24.90
2022-08-20T07:32:45.761Z,23.30
2022-08-20T07:35:44.112Z,23.10
2022-08-20T07:38:25.063Z,24.20
2022-08-20T07:41:02.962Z,27.00
2022-08-20T07:43:34.794Z,33.30
2022-08-20T07:46:14.258Z,23.30
2022-08-20T07:48:50.335Z,24.30
2022-08-20T07:51:29.749Z,25.10
2022-08-20T07:54:08.481Z,23.80
2022-08-20T07:56:45.789Z,24.70
2022-08-20T07:59:21.606Z,21.20
2022-08-20T08:01:49.833Z,23.20
2022-08-20T08:04:18.728Z,23.30
2022-08-20T08:06:51.355Z,28.00
2022-08-20T08:09:23.144Z,26.80
2022-08-20T08:11:58.485Z,23.10
2022-08-20T08:14:34.452Z,20.50
2022-08-20T08:17:04.969Z,21.00
2022-08-20T08:22:42.599Z,19.80
2022-08-20T08:25:13.463Z,64.20
2022-08-20T08:27:48.937Z,29.30
2022-08-20T08:31:06.203Z,24.00
2022-08-20T08:33:34.815Z,21.80
2022-08-20T08:36:14.094Z,22.20
2022-08-20T08:38:44.981Z,22.60
2022-08-20T08:41:25.886Z,22.50
2022-08-20T08:44:25.686Z,22.90
2022-08-20T08:46:58.783Z,22.90
2022-08-20T08:49:37.659Z,20.30
2022-08-20T08:52:16.302Z,23.60
2022-08-20T08:54:51.922Z,27.40
2022-08-20T08:57:20.773Z,23.80
2022-08-20T09:00:04.848Z,23.20
2022-08-20T09:02:38.468Z,26.80
2022-08-20T09:05:41.407Z,24.70
2022-08-20T09:08:19.418Z,23.30
2022-08-20T09:10:50.758Z,23.40
2022-08-20T09:13:19.613Z,22.80
2022-08-20T09:15:51.213Z,22.80
2022-08-20T09:18:20.509Z,22.20
2022-08-20T09:20:49.316Z,22.40
2022-08-20T09:23:17.571Z,21.80
2022-08-20T09:25:45.973Z,21.00
2022-08-20T09:28:14.972Z,21.80
2022-08-20T09:30:46.634Z,20.90
2022-08-20T09:33:18.411Z,22.30
2022-08-20T09:35:50.485Z,20.90
2022-08-20T09:38:22.773Z,20.90
2022-08-20T09:40:56.760Z,20.40
2022-08-20T09:43:25.406Z,94.40
2022-08-20T09:48:31.935Z,92.20
2022-08-20T09:51:03.936Z,23.30
2022-08-20T09:53:42.853Z,22.20
2022-08-20T09:56:13.977Z,22.60
2022-08-20T09:58:47.970Z,20.60
2022-08-20T10:01:19.437Z,22.20
2022-08-20T10:03:49.281Z,21.80
2022-08-20T10:06:22.287Z,21.30
2022-08-20T10:08:53.833Z,21.40
2022-08-20T10:11:22.073Z,19.50
2022-08-20T10:13:50.504Z,22.10
2022-08-20T10:16:19.101Z,21.60
2022-08-20T10:18:49.725Z,23.00
2022-08-20T10:21:38.426Z,70.80
2022-08-20T10:24:10.073Z,62.60
2022-08-20T10:26:41.904Z,24.20
2022-08-20T10:29:10.692Z,23.20
2022-08-20T10:31:40.469Z,24.90
2022-08-20T10:34:09.142Z,20.30
2022-08-20T10:36:37.421Z,20.70
2022-08-20T10:39:11.876Z,43.40
2022-08-20T10:42:23.627Z,23.00
2022-08-20T10:45:16.343Z,21.40
2022-08-20T10:48:20.831Z,27.50
2022-08-20T10:51:02.166Z,22.60
2022-08-20T10:53:41.648Z,36.80
2022-08-20T10:56:19.795Z,27.60
2022-08-20T10:58:50.970Z,24.70
2022-08-20T11:01:37.655Z,45.10
2022-08-20T11:04:08.803Z,20.80
2022-08-20T11:06:40.350Z,20.10
2022-08-20T11:09:37.997Z,25.40
2022-08-20T11:12:28.692Z,23.00
2022-08-20T11:15:00.334Z,28.90
2022-08-20T11:17:33.470Z,22.00
2022-08-20T11:20:08.261Z,20.30
2022-08-20T11:22:46.532Z,21.70
2022-08-20T11:25:21.134Z,22.70
2022-08-20T11:27:51.698Z,20.30
2022-08-20T11:30:25.223Z,20.30
2022-08-20T11:32:58.543Z,19.80
2022-08-20T11:35:49.523Z,19.10
2022-08-20T11:38:25.776Z,19.50
2022-08-20T11:40:54.371Z,18.80
2022-08-20T11:43:33.393Z,18.00
2022-08-20T11:46:48.481Z,18.20
2022-08-20T11:49:20.362Z,18.40
2022-08-20T11:52:34.271Z,38.30
2022-08-20T11:55:06.361Z,39.40
2022-08-20T11:57:37.909Z,19.00
2022-08-20T12:00:33.027Z,19.30
2022-08-20T12:03:17.529Z,18.30
2022-08-20T12:05:49.415Z,15.10
2022-08-20T12:08:45.249Z,18.30
2022-08-20T12:11:27.823Z,17.50
2022-08-20T12:14:30.414Z,18.30
2022-08-20T12:20:57.046Z,16.80
2022-08-20T12:24:57.545Z,15.00
2022-08-20T13:40:26.881Z,9.80
2022-08-20T14:07:19.312Z,8.00
2022-08-20T14:10:48.752Z,7.40
2022-08-20T14:18:05.992Z,8.20
2022-08-20T14:26:19.746Z,8.10
2022-08-20T14:33:20.712Z,7.40
2022-08-20T14:37:19.449Z,7.70
2022-08-20T14:41:02.443Z,7.10
2022-08-20T15:03:48.331Z,5.00
2022-08-20T15:07:46.780Z,4.50
2022-08-20T15:15:56.052Z,5.80
2022-08-20T15:20:25.267Z,7.60
2022-08-20T15:23:59.613Z,4.40
2022-08-20T15:26:40.906Z,5.30
2022-08-20T15:30:00.782Z,4.10
2022-08-20T15:33:09.340Z,3.90
2022-08-20T15:36:00.403Z,4.20
2022-08-20T15:38:46.778Z,4.10
2022-08-20T15:41:22.995Z,3.60
2022-08-20T15:44:24.825Z,3.50
2022-08-20T15:48:30.407Z,3.80
2022-08-20T15:51:35.565Z,3.70
2022-08-20T15:54:16.305Z,3.90
2022-08-20T15:57:49.548Z,4.00
2022-08-20T16:00:46.645Z,3.50
2022-08-20T16:04:30.952Z,3.90
2022-08-20T16:07:47.737Z,3.80
2022-08-20T16:11:06.798Z,3.70
2022-08-20T16:13:54.581Z,3.90
2022-08-20T16:17:05.003Z,4.40
2022-08-20T16:20:14.617Z,4.00
2022-08-20T16:22:53.258Z,3.90
2022-08-20T16:26:09.257Z,4.20
2022-08-20T16:29:14.305Z,4.40
2022-08-20T16:31:54.268Z,5.60
2022-08-20T16:35:05.784Z,4.40
2022-08-20T16:38:12.549Z,4.00
2022-08-20T16:41:43.962Z,4.50
2022-08-20T16:44:48.084Z,4.80
2022-08-20T16:48:03.683Z,4.90
2022-08-20T16:51:22.997Z,5.70
2022-08-20T16:54:29.737Z,5.50
2022-08-20T16:57:45.467Z,6.50
2022-08-20T17:00:58.379Z,7.30
2022-08-20T17:04:36.306Z,5.90
2022-08-20T17:07:33.362Z,6.30
2022-08-20T17:10:23.215Z,6.30
2022-08-20T17:13:00.870Z,6.90
2022-08-20T17:16:18.038Z,7.40
2022-08-20T17:20:03.711Z,7.90
2022-08-20T17:23:56.686Z,8.40
2022-08-20T17:27:00.337Z,8.40
2022-08-20T17:29:53.420Z,8.80
2022-08-20T17:32:58.071Z,9.30
2022-08-20T17:36:17.066Z,10.10
2022-08-20T17:39:48.811Z,11.40
2022-08-20T17:43:00.905Z,10.20
2022-08-20T17:46:35.879Z,10.40
2022-08-20T17:50:34.517Z,10.20
2022-08-20T17:53:48.662Z,10.50
2022-08-20T17:56:32.984Z,11.80
2022-08-20T18:00:00.080Z,11.30
2022-08-20T18:02:47.209Z,11.00
2022-08-20T18:05:35.953Z,12.10
2022-08-20T18:08:30.920Z,11.00
2022-08-20T18:11:27.188Z,11.90
2022-08-20T18:14:23.688Z,11.80
2022-08-20T18:18:52.923Z,12.00
2022-08-20T18:21:49.554Z,11.60
2022-08-20T18:29:14.117Z,11.30
2022-08-20T18:32:14.356Z,11.80
2022-08-20T18:35:24.111Z,12.00
2022-08-20T18:38:23.521Z,12.10
2022-08-20T18:41:36.027Z,11.70
2022-08-20T18:44:37.619Z,10.90
2022-08-20T18:48:05.416Z,11.40
2022-08-20T18:51:09.782Z,12.70
2022-08-20T18:53:58.005Z,12.10
2022-08-20T18:56:58.741Z,12.00
2022-08-20T18:59:46.678Z,11.90
2022-08-20T19:02:53.256Z,11.70
2022-08-20T19:06:31.829Z,12.10
2022-08-20T19:09:32.084Z,11.70
2022-08-20T19:12:37.329Z,12.10
2022-08-20T19:15:23.454Z,12.90
2022-08-20T19:18:29.751Z,11.30
2022-08-20T19:21:03.465Z,11.80
2022-08-20T19:24:34.772Z,11.80
2022-08-20T19:28:01.098Z,12.40
2022-08-20T19:31:09.995Z,11.90
2022-08-20T19:34:37.918Z,12.70
2022-08-20T19:37:51.235Z,12.20
2022-08-20T19:40:51.635Z,12.30
2022-08-20T19:44:16.718Z,11.70
2022-08-20T19:47:20.141Z,11.90
2022-08-20T19:50:43.238Z,11.80
2022-08-20T19:53:44.909Z,11.40
2022-08-20T19:56:38.268Z,12.00
2022-08-20T19:59:58.642Z,12.00
2022-08-20T20:02:53.083Z,11.90
2022-08-20T20:05:25.391Z,12.30
2022-08-20T20:08:11.723Z,10.80
2022-08-20T20:10:41.953Z,10.70
2022-08-20T20:13:45.509Z,10.30
2022-08-20T20:17:04.169Z,11.10
2022-08-20T20:20:38.263Z,10.60
2022-08-20T20:24:11.544Z,10.50
2022-08-20T20:27:08.900Z,10.10
2022-08-20T20:29:57.502Z,10.00
2022-08-20T20:32:48.989Z,10.30
2022-08-20T20:39:38.989Z,8.60
2022-08-20T20:45:58.466Z,9.20
2022-08-20T20:49:45.510Z,9.50
2022-08-20T20:56:02.552Z,9.20
2022-08-20T20:59:06.264Z,9.80
2022-08-20T21:02:27.665Z,9.40
2022-08-20T21:05:19.075Z,9.30
2022-08-20T21:08:41.589Z,9.40
2022-08-20T21:11:50.928Z,9.30
2022-08-20T21:14:24.399Z,10.20
2022-08-20T21:17:08.988Z,10.20
2022-08-20T21:19:44.877Z,10.30
2022-08-20T21:22:33.956Z,9.80
2022-08-20T21:25:05.705Z,11.30
2022-08-20T21:27:35.840Z,9.80
2022-08-20T21:30:27.760Z,9.90
2022-08-20T21:33:04.759Z,8.40
2022-08-20T21:35:34.300Z,8.70
2022-08-20T21:38:10.408Z,8.70
2022-08-20T21:40:47.704Z,9.00
2022-08-20T21:44:06.841Z,7.20
2022-08-20T21:46:56.591Z,6.90
2022-08-20T21:49:31.427Z,6.50
2022-08-20T21:52:02.388Z,5.70
2022-08-20T21:57:38.006Z,5.00
2022-08-20T22:00:46.288Z,4.50
2022-08-20T22:03:22.627Z,4.10
2022-08-20T22:06:07.176Z,4.00
2022-08-20T22:08:47.653Z,4.20
2022-08-20T22:11:39.101Z,4.50
2022-08-20T22:14:23.681Z,4.70
2022-08-20T22:16:54.481Z,4.60
2022-08-20T22:19:21.871Z,4.60
2022-08-20T22:21:49.260Z,4.60
2022-08-20T22:24:16.499Z,4.80
2022-08-20T22:26:56.719Z,5.70
2022-08-20T22:29:48.576Z,5.40
2022-08-20T22:32:54.504Z,5.30
2022-08-20T22:35:33.301Z,6.00
2022-08-20T22:38:13.185Z,6.70
2022-08-20T22:40:41.802Z,6.50
2022-08-20T22:43:32.983Z,7.20
2022-08-20T22:46:36.431Z,7.20
2022-08-20T22:49:31.067Z,7.40
2022-08-20T22:52:08.200Z,8.50
2022-08-20T22:54:36.664Z,9.20
2022-08-20T22:57:12.713Z,8.80
2022-08-20T22:59:53.435Z,8.80
2022-08-20T23:02:22.232Z,8.20
2022-08-20T23:05:01.816Z,8.50
2022-08-20T23:07:36.265Z,8.30
2022-08-20T23:10:04.807Z,9.10
2022-08-20T23:12:40.690Z,8.90
2022-08-20T23:15:08.388Z,10.30
2022-08-20T23:17:38.453Z,9.90
2022-08-20T23:20:19.494Z,9.70
2022-08-20T23:22:55.277Z,10.10
2022-08-20T23:25:25.060Z,10.10
2022-08-20T23:27:56.688Z,10.00
2022-08-20T23:30:31.480Z,9.90
2022-08-20T23:33:01.600Z,10.10
2022-08-20T23:35:33.398Z,10.30
2022-08-20T23:38:07.014Z,10.60
2022-08-20T23:40:34.538Z,11.00
2022-08-20T23:43:04.247Z,10.90
2022-08-20T23:45:43.545Z,11.50
2022-08-20T23:48:27.876Z,11.50
2022-08-20T23:51:01.324Z,11.50
2022-08-20T23:53:31.517Z,9.70
2022-08-20T23:56:01.412Z,9.50
2022-08-20T23:58:29.552Z,9.70
